Gulf — V2BB5 — position and weather

sailwx.info

Track history (hours):
 
Tides and Currents Weather Stations Pressure Air Temp Water Temp Dewpoint Dewpoint Depression Visibility Wind Speed Wind Dir Waves Ship Positions

Gulf

Last reported at 2017-May-14 05:24 UTC. Time now 2017-May-26 09:28 UTC.
Position N 35°11' E 034°04'.
Warning: this ship's position is 12 days out of date.

Length 96 m; draft 3.5 m.

Type: Cargo ship. MMSI: 304320000.

Date/timePositionNaut miles runAvg speedWind from/ knotsBaromVisibWave heightAir tempDewpointWater temp
2017-May-14 05:24N 35°11' E 034°04'0 0.3
2017-May-14 04:12N 35°11' E 034°05'52 9.0
2017-May-13 22:28N 34°28' E 034°39'5 9.8
2017-May-13 22:00N 34°24' E 034°43'5 9.8
2017-May-13 21:30N 34°20' E 034°46'8 9.6
2017-May-13 20:42N 34°15' E 034°53'2 9.4
2017-May-13 20:30N 34°13' E 034°54'5 9.6
2017-May-13 20:00N 34°10' E 034°58'5 9.5
2017-May-13 19:30N 34°06' E 035°02'5 9.6
2017-May-13 19:00N 34°02' E 035°05'5 9.5
2017-May-13 18:30N 33°59' E 035°09'5 9.4
2017-May-13 18:01N 33°55' E 035°13'6 9.6
2017-May-13 17:22N 33°55' E 035°20'4 9.7
2017-May-13 17:00N 33°55' E 035°24'  
2017-May-11 01:30N 33°55' E 035°30'0 0.1
2017-May-11 01:01N 33°55' E 035°30'1 2.1
2017-May-11 00:21N 33°55' E 035°29'3 9.3
2017-May-11 00:00N 33°54' E 035°25'5 9.2
2017-May-10 23:30N 33°54' E 035°20'5 9.2
2017-May-10 23:00N 33°54' E 035°14'5 9.1
2017-May-10 22:30N 33°55' E 035°09'5 9.1
2017-May-10 22:01N 33°56' E 035°03'5 9.0
2017-May-10 21:30N 33°58' E 034°58'4 9.0
2017-May-10 21:00N 33°60' E 034°54'4 9.0
2017-May-10 20:30N 34°02' E 034°49'5 9.0
2017-May-10 20:00N 34°04' E 034°44'  
Track history (hours):
 
Tides and Currents Weather Stations Pressure Air Temp Water Temp Dewpoint Dewpoint Depression Visibility Wind Speed Wind Dir Waves Ship Positions

Gulf

Last reported at 2017-May-14 05:24 UTC. Time now 2017-May-26 09:28 UTC.
Position N 35°11' E 034°04'.
Warning: this ship's position is 12 days out of date.

Length 96 m; draft 3.5 m.

Type: Cargo ship. MMSI: 304320000.

Date/timePositionNaut miles runAvg speedWind from/ knotsBaromVisibWave heightAir tempDewpointWater temp
2017-May-14 05:24N 35°11' E 034°04'0 0.3
2017-May-14 04:12N 35°11' E 034°05'52 9.0
2017-May-13 22:28N 34°28' E 034°39'5 9.8
2017-May-13 22:00N 34°24' E 034°43'5 9.8
2017-May-13 21:30N 34°20' E 034°46'8 9.6
2017-May-13 20:42N 34°15' E 034°53'2 9.4
2017-May-13 20:30N 34°13' E 034°54'5 9.6
2017-May-13 20:00N 34°10' E 034°58'5 9.5
2017-May-13 19:30N 34°06' E 035°02'5 9.6
2017-May-13 19:00N 34°02' E 035°05'5 9.5
2017-May-13 18:30N 33°59' E 035°09'5 9.4
2017-May-13 18:01N 33°55' E 035°13'6 9.6
2017-May-13 17:22N 33°55' E 035°20'4 9.7
2017-May-13 17:00N 33°55' E 035°24'  
2017-May-11 01:30N 33°55' E 035°30'0 0.1
2017-May-11 01:01N 33°55' E 035°30'1 2.1
2017-May-11 00:21N 33°55' E 035°29'3 9.3
2017-May-11 00:00N 33°54' E 035°25'5 9.2
2017-May-10 23:30N 33°54' E 035°20'5 9.2
2017-May-10 23:00N 33°54' E 035°14'5 9.1
2017-May-10 22:30N 33°55' E 035°09'5 9.1
2017-May-10 22:01N 33°56' E 035°03'5 9.0
2017-May-10 21:30N 33°58' E 034°58'4 9.0
2017-May-10 21:00N 33°60' E 034°54'4 9.0
2017-May-10 20:30N 34°02' E 034°49'5 9.0
2017-May-10 20:00N 34°04' E 034°44'  

Dump ship's entire track history